メインページ
METAR-TAF:

METAR-TAF

空港 :

アントファガスタ, チリ

セロ・モレノ国際空港

緯度: 23-26S, 経度: 070-26W, 海抜: 135m

現時点の気象観測

当レポートは26分前の21:00(UTC)に作成
の風 12kt
気温 16°C
湿度 68%
気圧 1012 hPa
視程10km以上
高度1500ftの雲はほとんどない
高度2500ftの千切れ雲あり

METAR: SCFA 202100Z 19012KT 9999 FEW015 BKN025 16/10 Q1012 NOSIG

時間: 18:26 (21:26 UTC)

予報

当レポートは4時間56分前の16:30(UTC)に作成
予報は20日の 18時(UTC)から 21日の 18時(UTC)まで有効
南/南西の風 14kt
視程10km以上
高度2500ftの雲はほとんどない
20日の 21時(UTC)から 20日の 23時(UTC)まで徐々に
高度1800ftの千切れ雲あり
21日の 00時(UTC)から 21日の 02時(UTC)まで徐々に
の風 4kt
21日の 16時(UTC)から 21日の 18時(UTC)まで徐々に
南/南西の風 14kt
高度1800ftの雲は散在している

TAF: SCFA 201630Z 2018/2118 21014KT 9999 FEW025 TX17/2019Z TN14/2107Z BECMG 2021/2023 BKN018 BECMG 2100/2102 18004KT BECMG 2116/2118 20014KT SCT018

4,000以上の空港の気象観測と天気予報(METAR報とTAF報)

利用可能な観測所は地図上に黄色い丸と赤い丸で示す。

丸の上にカーソルを重ねると観測所名を参照できる。

次にクリックすると気象観測と天気予報を参照できる。

マップの切り替え:黒色「×」印の緑ボタンをクリックして拡大、「-」印の緑ボタンをクリックして縮小、緑色の三角印をクリックして隣りの地図に切り替え


METAR-TAF: